Time;durP1;ratioP1;P1;durP2;ratioP2;P2;SDS_P1;SDS_P2;PMS_P1;PMS_P2;Temp;Humidity;BMP_temperature;BMP_pressure;BME280_temperature;BME280_humidity;BME280_pressure;Samples;Min_cycle;Max_cycle;Signal;HPM_P1;HPM_P2
2022/10/31 00:02:04;;;;;;;23.50;12.70;;;;;;;;;;7392179;19;19995;-76
2022/10/31 00:04:29;;;;;;;22.00;13.00;;;;;;;;;;7392780;19;20002;-76
2022/10/31 00:06:54;;;;;;;22.23;13.15;;;;;;;;;;7392476;19;20511;-76
2022/10/31 00:09:20;;;;;;;26.27;12.95;;;;;;;;;;7392548;19;20003;-76
2022/10/31 00:11:45;;;;;;;24.02;12.73;;;;;;;;;;7388919;19;20026;-77
2022/10/31 00:14:10;;;;;;;22.70;12.65;;;;;;;;;;7389520;19;20338;-76
2022/10/31 00:16:36;;;;;;;22.17;12.10;;;;;;;;;;7394119;19;20549;-76
2022/10/31 00:19:05;;;;;;;25.90;13.13;;;;;;;;;;7392473;19;20002;-75
2022/10/31 00:21:31;;;;;;;23.42;12.15;;;;;;;;;;7389312;19;20014;-76
2022/10/31 00:23:58;;;;;;;28.00;14.30;;;;;;;;;;7392148;19;20003;-76
2022/10/31 00:26:24;;;;;;;22.33;12.23;;;;;;;;;;7391938;19;20443;-76
2022/10/31 00:28:50;;;;;;;22.88;13.13;;;;;;;;;;7392424;19;19999;-76
2022/10/31 00:31:17;;;;;;;21.83;12.40;;;;;;;;;;7387822;19;20006;-76
2022/10/31 00:33:42;;;;;;;22.27;12.18;;;;;;;;;;7394837;19;20003;-76
2022/10/31 00:36:12;;;;;;;21.73;12.70;;;;;;;;;;7392118;19;20046;-77
2022/10/31 00:38:37;;;;;;;22.65;12.63;;;;;;;;;;7392157;19;20422;-77
2022/10/31 00:41:02;;;;;;;21.95;12.13;;;;;;;;;;7389264;19;20118;-76
2022/10/31 00:43:31;;;;;;;23.23;12.05;;;;;;;;;;7392534;19;20358;-77
2022/10/31 00:45:57;;;;;;;22.75;13.13;;;;;;;;;;7389945;19;20006;-76
2022/10/31 00:48:22;;;;;;;24.90;12.73;;;;;;;;;;7391718;19;19999;-77
2022/10/31 00:50:47;;;;;;;23.77;12.38;;;;;;;;;;7388075;19;20010;-76
2022/10/31 00:53:12;;;;;;;25.73;12.65;;;;;;;;;;7387580;19;20006;-76
2022/10/31 00:55:38;;;;;;;21.30;12.27;;;;;;;;;;7390366;19;20016;-76
2022/10/31 00:58:03;;;;;;;23.83;12.40;;;;;;;;;;7391126;19;20014;-76
2022/10/31 01:00:28;;;;;;;21.55;12.93;;;;;;;;;;7389507;19;20010;-76
2022/10/31 01:02:54;;;;;;;21.33;12.27;;;;;;;;;;7390619;19;19999;-77
2022/10/31 01:05:19;;;;;;;26.92;13.85;;;;;;;;;;7390397;19;20021;-77
2022/10/31 01:07:45;;;;;;;23.45;12.82;;;;;;;;;;7390639;19;20142;-77
2022/10/31 01:10:10;;;;;;;24.35;13.70;;;;;;;;;;7388549;19;20019;-76
2022/10/31 01:12:39;;;;;;;23.50;13.63;;;;;;;;;;7388220;19;20002;-76
2022/10/31 01:15:05;;;;;;;26.95;13.73;;;;;;;;;;7390276;19;20007;-76
2022/10/31 01:17:31;;;;;;;23.50;13.93;;;;;;;;;;7390296;19;20465;-76
2022/10/31 01:19:56;;;;;;;20.02;13.13;;;;;;;;;;7389848;19;20006;-77
2022/10/31 01:22:21;;;;;;;25.35;13.00;;;;;;;;;;7391348;19;20544;-77
2022/10/31 01:24:47;;;;;;;28.83;13.23;;;;;;;;;;7390763;19;20035;-77
2022/10/31 01:27:12;;;;;;;21.48;13.10;;;;;;;;;;7389348;19;19999;-77
2022/10/31 01:29:37;;;;;;;27.17;12.63;;;;;;;;;;7388670;19;20006;-76
2022/10/31 01:32:03;;;;;;;26.20;13.37;;;;;;;;;;7388663;19;20010;-77
2022/10/31 01:34:28;;;;;;;26.27;13.50;;;;;;;;;;7391291;19;20003;-76
2022/10/31 01:36:54;;;;;;;21.88;13.45;;;;;;;;;;7389316;19;19995;-77
2022/10/31 01:39:19;;;;;;;23.67;12.82;;;;;;;;;;7387629;19;19999;-77
2022/10/31 01:41:48;;;;;;;29.05;13.43;;;;;;;;;;7387042;19;20002;-77
2022/10/31 01:44:13;;;;;;;22.27;12.88;;;;;;;;;;7389053;19;20002;-76
2022/10/31 01:46:57;;;;;;;18.15;11.80;;;;;;;;;;7389424;19;20015;-77
2022/10/31 01:49:39;;;;;;;23.27;12.38;;;;;;;;;;7389385;19;20058;-76
2022/10/31 01:52:14;;;;;;;25.27;13.20;;;;;;;;;;7388340;19;20561;-76
2022/10/31 01:54:47;;;;;;;22.27;12.98;;;;;;;;;;7388483;19;20011;-76
2022/10/31 01:57:15;;;;;;;22.67;13.07;;;;;;;;;;7388778;19;19999;-76
2022/10/31 01:59:45;;;;;;;23.92;13.20;;;;;;;;;;7388647;19;20002;-78
2022/10/31 02:02:12;;;;;;;25.15;13.23;;;;;;;;;;7388793;19;19999;-76
2022/10/31 02:04:38;;;;;;;25.80;12.57;;;;;;;;;;7386952;19;19999;-76
2022/10/31 02:07:09;;;;;;;23.48;13.65;;;;;;;;;;7384181;19;20031;-77
2022/10/31 02:09:36;;;;;;;24.70;11.98;;;;;;;;;;7388351;19;20393;-75
2022/10/31 02:12:02;;;;;;;28.92;13.57;;;;;;;;;;7387733;19;20005;-77
2022/10/31 02:14:30;;;;;;;24.17;12.73;;;;;;;;;;7388470;19;20058;-77
2022/10/31 02:16:55;;;;;;;22.20;12.43;;;;;;;;;;7388406;19;20022;-76
2022/10/31 02:19:38;;;;;;;23.17;12.77;;;;;;;;;;7387952;19;19994;-76
2022/10/31 02:22:19;;;;;;;20.02;12.20;;;;;;;;;;7387519;19;19994;-75
2022/10/31 02:24:59;;;;;;;24.85;12.25;;;;;;;;;;7387019;19;20194;-76
2022/10/31 02:27:52;;;;;;;22.95;12.57;;;;;;;;;;7387107;19;20009;-77
2022/10/31 02:30:24;;;;;;;17.85;11.35;;;;;;;;;;7384859;19;20019;-77
2022/10/31 02:33:25;;;;;;;24.23;12.85;;;;;;;;;;7386991;19;20528;-76
2022/10/31 02:35:59;;;;;;;21.05;12.30;;;;;;;;;;7387813;19;19995;-75
2022/10/31 02:38:36;;;;;;;25.05;13.68;;;;;;;;;;7387693;19;20544;-75
2022/10/31 02:41:10;;;;;;;24.60;12.05;;;;;;;;;;7385998;19;20091;-76
2022/10/31 02:43:48;;;;;;;26.52;12.32;;;;;;;;;;7387636;19;19994;-76
2022/10/31 02:46:40;;;;;;;23.85;11.52;;;;;;;;;;7387668;19;20003;-77
2022/10/31 02:49:15;;;;;;;23.55;11.88;;;;;;;;;;7385745;19;20008;-77
2022/10/31 02:51:40;;;;;;;20.10;12.13;;;;;;;;;;7383267;19;20014;-77
2022/10/31 02:54:36;;;;;;;25.10;12.38;;;;;;;;;;7386470;19;19998;-76
2022/10/31 02:57:06;;;;;;;16.75;11.35;;;;;;;;;;7388880;19;20003;-75
2022/10/31 02:59:35;;;;;;;20.23;11.93;;;;;;;;;;7388386;19;19998;-77
2022/10/31 03:02:25;;;;;;;18.58;11.43;;;;;;;;;;7388812;19;20012;-76
2022/10/31 03:05:01;;;;;;;24.35;12.00;;;;;;;;;;7387194;19;20008;-77
2022/10/31 03:07:51;;;;;;;18.20;11.75;;;;;;;;;;7384846;19;20307;-77
2022/10/31 03:10:41;;;;;;;20.55;10.63;;;;;;;;;;7386532;19;20022;-76
2022/10/31 03:13:20;;;;;;;19.50;11.27;;;;;;;;;;7385033;19;20002;-78
2022/10/31 03:15:50;;;;;;;22.23;10.85;;;;;;;;;;7384645;19;19994;-76
2022/10/31 03:18:26;;;;;;;19.17;10.55;;;;;;;;;;7386140;19;19994;-76
2022/10/31 03:21:15;;;;;;;21.05;10.30;;;;;;;;;;7383085;19;20468;-77
2022/10/31 03:23:44;;;;;;;17.83;10.65;;;;;;;;;;7386300;19;19998;-77
2022/10/31 03:26:15;;;;;;;18.65;10.45;;;;;;;;;;7385799;19;19998;-75
2022/10/31 03:28:58;;;;;;;19.47;10.50;;;;;;;;;;7386005;19;20009;-77
2022/10/31 03:31:28;;;;;;;19.13;10.95;;;;;;;;;;7383914;19;20304;-76
2022/10/31 03:33:58;;;;;;;16.30;10.07;;;;;;;;;;7382619;19;20002;-76
2022/10/31 03:36:25;;;;;;;18.35;11.57;;;;;;;;;;7385704;19;20058;-77
2022/10/31 03:38:51;;;;;;;21.88;10.30;;;;;;;;;;7385532;19;20400;-77
2022/10/31 03:41:21;;;;;;;19.52;10.38;;;;;;;;;;7383381;19;20369;-77
2022/10/31 03:43:58;;;;;;;19.42;11.32;;;;;;;;;;7385424;19;19998;-77
2022/10/31 03:46:24;;;;;;;19.73;10.80;;;;;;;;;;7385795;19;20023;-76
2022/10/31 03:48:50;;;;;;;16.70;10.00;;;;;;;;;;7385344;19;20002;-76
2022/10/31 03:51:33;;;;;;;16.65;10.13;;;;;;;;;;7383707;19;19998;-78
2022/10/31 03:54:38;;;;;;;21.33;10.77;;;;;;;;;;7382294;19;20027;-76
2022/10/31 03:57:43;;;;;;;18.25;9.95;;;;;;;;;;7385168;19;20019;-76
2022/10/31 04:00:12;;;;;;;18.58;9.45;;;;;;;;;;7384717;19;20020;-76
2022/10/31 04:02:45;;;;;;;20.95;10.50;;;;;;;;;;7384334;19;20472;-76
2022/10/31 04:05:12;;;;;;;17.15;10.43;;;;;;;;;;7385215;19;20067;-77
2022/10/31 04:07:42;;;;;;;18.52;10.25;;;;;;;;;;7385579;19;20232;-76
2022/10/31 04:10:11;;;;;;;19.08;10.38;;;;;;;;;;7384227;19;20003;-76
2022/10/31 04:12:39;;;;;;;16.77;9.40;;;;;;;;;;7383508;19;19995;-77
2022/10/31 04:15:07;;;;;;;17.90;9.75;;;;;;;;;;7384797;19;20002;-77
2022/10/31 04:17:36;;;;;;;18.98;9.65;;;;;;;;;;7384674;19;20058;-76
2022/10/31 04:20:02;;;;;;;20.50;9.45;;;;;;;;;;7383836;19;20468;-76
2022/10/31 04:22:28;;;;;;;18.85;9.60;;;;;;;;;;7383707;19;20001;-76
2022/10/31 04:24:53;;;;;;;17.90;9.48;;;;;;;;;;7384898;19;20050;-76
2022/10/31 04:27:18;;;;;;;14.73;9.15;;;;;;;;;;7386888;19;19998;-77
2022/10/31 04:29:44;;;;;;;17.30;8.93;;;;;;;;;;7386798;19;20015;-77
2022/10/31 04:32:09;;;;;;;18.92;8.75;;;;;;;;;;7390490;19;20037;-77
2022/10/31 04:34:34;;;;;;;14.27;7.93;;;;;;;;;;7392099;19;20036;-77
2022/10/31 04:37:00;;;;;;;20.15;8.73;;;;;;;;;;7392068;19;20020;-76
2022/10/31 04:39:25;;;;;;;17.13;9.30;;;;;;;;;;7389784;19;19994;-77
2022/10/31 04:41:50;;;;;;;18.15;8.55;;;;;;;;;;7391243;19;19994;-77
2022/10/31 04:44:16;;;;;;;17.42;9.10;;;;;;;;;;7391255;19;20003;-77
2022/10/31 04:46:44;;;;;;;17.70;8.68;;;;;;;;;;7391275;19;19999;-77
2022/10/31 04:49:10;;;;;;;17.88;8.55;;;;;;;;;;7391913;19;20002;-76
2022/10/31 04:51:35;;;;;;;16.38;9.07;;;;;;;;;;7387717;19;20367;-76
2022/10/31 04:54:00;;;;;;;14.27;8.63;;;;;;;;;;7387213;19;20312;-76
2022/10/31 04:56:26;;;;;;;15.70;8.35;;;;;;;;;;7390770;19;19991;-76
2022/10/31 04:58:51;;;;;;;15.55;8.23;;;;;;;;;;7390806;19;20341;-76
2022/10/31 05:01:16;;;;;;;17.70;8.32;;;;;;;;;;7386214;19;20002;-77
2022/10/31 05:03:42;;;;;;;15.48;8.30;;;;;;;;;;7390555;19;19999;-77
2022/10/31 05:06:08;;;;;;;19.98;8.93;;;;;;;;;;7390275;19;19995;-77
2022/10/31 05:08:33;;;;;;;14.68;9.02;;;;;;;;;;7390612;19;20472;-76
2022/10/31 05:11:02;;;;;;;17.90;9.00;;;;;;;;;;7388050;19;20026;-77
2022/10/31 05:13:28;;;;;;;15.35;9.48;;;;;;;;;;7388595;19;20135;-77
2022/10/31 05:15:53;;;;;;;21.60;9.07;;;;;;;;;;7394766;19;19998;-77
2022/10/31 05:18:19;;;;;;;18.55;8.30;;;;;;;;;;7389985;19;20017;-77
2022/10/31 05:20:44;;;;;;;19.52;9.27;;;;;;;;;;7388894;19;20073;-76
2022/10/31 05:23:09;;;;;;;16.35;8.73;;;;;;;;;;7389504;19;19999;-76
2022/10/31 05:25:35;;;;;;;15.80;9.35;;;;;;;;;;7390486;19;20106;-77
2022/10/31 05:28:00;;;;;;;19.33;9.35;;;;;;;;;;7390145;19;20109;-77
2022/10/31 05:30:28;;;;;;;17.05;9.02;;;;;;;;;;7389460;19;20002;-75
2022/10/31 05:32:54;;;;;;;17.40;9.95;;;;;;;;;;7388558;19;20006;-77
2022/10/31 05:35:23;;;;;;;19.00;10.35;;;;;;;;;;7389417;19;19995;-76
2022/10/31 05:37:49;;;;;;;19.75;10.38;;;;;;;;;;7389948;19;20516;-77
2022/10/31 05:40:16;;;;;;;19.70;10.13;;;;;;;;;;7388927;19;20007;-76
2022/10/31 05:42:42;;;;;;;21.33;10.45;;;;;;;;;;7386144;19;19994;-76
2022/10/31 05:45:10;;;;;;;22.15;9.18;;;;;;;;;;7389492;19;20095;-76
2022/10/31 05:47:35;;;;;;;16.13;9.85;;;;;;;;;;7390187;19;19995;-76
2022/10/31 05:50:01;;;;;;;18.55;9.40;;;;;;;;;;7388387;19;20022;-76
2022/10/31 05:52:26;;;;;;;16.65;9.10;;;;;;;;;;7388763;19;19995;-76
2022/10/31 05:54:51;;;;;;;19.02;9.60;;;;;;;;;;7389822;19;20535;-76
2022/10/31 05:57:17;;;;;;;14.88;9.35;;;;;;;;;;7388944;19;19997;-76
2022/10/31 05:59:42;;;;;;;19.73;10.38;;;;;;;;;;7388718;19;20007;-77
2022/10/31 06:02:07;;;;;;;14.65;9.27;;;;;;;;;;7390938;19;20002;-77
2022/10/31 06:04:33;;;;;;;14.27;8.32;;;;;;;;;;7390175;19;20504;-78
2022/10/31 06:06:58;;;;;;;18.88;9.63;;;;;;;;;;7390175;19;20095;-76
2022/10/31 06:09:23;;;;;;;20.33;9.55;;;;;;;;;;7389554;19;20070;-76
2022/10/31 06:11:48;;;;;;;17.15;8.65;;;;;;;;;;7389540;19;20058;-76
2022/10/31 06:14:14;;;;;;;18.45;8.82;;;;;;;;;;7388768;19;20015;-76
2022/10/31 06:16:39;;;;;;;21.88;10.00;;;;;;;;;;7392125;19;20001;-76
2022/10/31 06:19:05;;;;;;;19.77;8.77;;;;;;;;;;7392576;19;20408;-76
2022/10/31 06:21:30;;;;;;;16.77;8.77;;;;;;;;;;7389707;19;20009;-76
2022/10/31 06:23:56;;;;;;;18.33;10.00;;;;;;;;;;7392776;19;19999;-76
2022/10/31 06:26:21;;;;;;;25.55;10.00;;;;;;;;;;7392019;19;20003;-76
2022/10/31 06:28:46;;;;;;;20.95;9.48;;;;;;;;;;7387430;19;19998;-77
2022/10/31 06:31:12;;;;;;;20.33;9.63;;;;;;;;;;7387574;19;20003;-76
2022/10/31 06:33:37;;;;;;;17.45;9.23;;;;;;;;;;7385410;19;20003;-76
2022/10/31 06:36:03;;;;;;;15.98;9.38;;;;;;;;;;7393313;19;20751;-76
2022/10/31 06:38:31;;;;;;;17.23;9.18;;;;;;;;;;7401643;19;20408;-78
2022/10/31 06:40:57;;;;;;;20.75;9.70;;;;;;;;;;7402249;19;20480;-77
2022/10/31 06:43:24;;;;;;;25.25;9.25;;;;;;;;;;7398215;19;20019;-77
2022/10/31 06:45:50;;;;;;;26.58;10.20;;;;;;;;;;7393169;19;20006;-75
2022/10/31 06:48:15;;;;;;;17.75;10.05;;;;;;;;;;7391900;19;19995;-79
2022/10/31 06:50:40;;;;;;;23.08;9.88;;;;;;;;;;7389570;19;20009;-77
2022/10/31 06:53:06;;;;;;;18.80;9.80;;;;;;;;;;7388626;19;19999;-79
2022/10/31 06:55:31;;;;;;;17.33;9.63;;;;;;;;;;7391347;19;20334;-80
2022/10/31 06:58:00;;;;;;;17.10;9.20;;;;;;;;;;7392898;19;20016;-76
2022/10/31 07:00:28;;;;;;;18.67;9.27;;;;;;;;;;7389253;19;20334;-77
2022/10/31 07:02:57;;;;;;;16.42;9.15;;;;;;;;;;7390737;19;20057;-79
2022/10/31 07:05:24;;;;;;;19.65;9.40;;;;;;;;;;7391851;19;20034;-78
2022/10/31 07:07:58;;;;;;;14.40;8.45;;;;;;;;;;7390643;19;20006;-78
2022/10/31 07:10:25;;;;;;;15.50;8.17;;;;;;;;;;7312670;19;1005150;-77
2022/10/31 07:12:57;;;;;;;14.40;7.72;;;;;;;;;;7383390;19;20406;-76
2022/10/31 07:15:28;;;;;;;17.80;7.82;;;;;;;;;;7383701;19;20330;-76
2022/10/31 07:17:53;;;;;;;16.33;7.80;;;;;;;;;;7383893;19;19995;-77
2022/10/31 07:20:19;;;;;;;12.60;7.85;;;;;;;;;;7386264;19;19998;-78
2022/10/31 07:22:45;;;;;;;16.65;7.88;;;;;;;;;;7383650;19;20062;-78
2022/10/31 07:25:11;;;;;;;14.13;7.28;;;;;;;;;;7384926;19;19999;-78
2022/10/31 07:27:42;;;;;;;15.45;7.65;;;;;;;;;;7389126;19;20007;-77
2022/10/31 07:30:09;;;;;;;19.55;11.27;;;;;;;;;;7389737;19;20026;-78
2022/10/31 07:32:46;;;;;;;12.65;6.68;;;;;;;;;;7387534;19;19995;-79
2022/10/31 07:35:14;;;;;;;12.35;7.00;;;;;;;;;;7389255;19;19995;-78
2022/10/31 07:37:39;;;;;;;14.40;5.95;;;;;;;;;;7391123;19;20401;-78
2022/10/31 07:40:06;;;;;;;10.85;6.10;;;;;;;;;;7389833;19;20048;-78
2022/10/31 07:42:39;;;;;;;11.52;5.90;;;;;;;;;;7385188;19;20073;-76
2022/10/31 07:45:06;;;;;;;10.25;6.07;;;;;;;;;;7388697;19;20107;-77
2022/10/31 07:47:42;;;;;;;16.55;6.10;;;;;;;;;;7390530;19;20032;-77
2022/10/31 07:50:10;;;;;;;11.82;6.15;;;;;;;;;;7389442;19;20027;-76
2022/10/31 07:52:36;;;;;;;15.40;6.07;;;;;;;;;;7382025;19;20002;-76
2022/10/31 07:55:02;;;;;;;15.98;7.07;;;;;;;;;;7388987;19;20006;-76
2022/10/31 07:57:27;;;;;;;13.85;6.15;;;;;;;;;;7412315;19;20074;-76
2022/10/31 07:59:52;;;;;;;16.55;6.47;;;;;;;;;;7422332;19;20029;-77
2022/10/31 08:02:18;;;;;;;11.98;6.50;;;;;;;;;;7395720;19;20470;-76
2022/10/31 08:04:43;;;;;;;12.52;6.65;;;;;;;;;;7384933;19;20042;-76
2022/10/31 08:07:08;;;;;;;23.58;7.13;;;;;;;;;;7391643;19;19998;-76
2022/10/31 08:09:34;;;;;;;23.83;7.75;;;;;;;;;;7389212;19;20010;-77
2022/10/31 08:11:59;;;;;;;14.85;6.50;;;;;;;;;;7389766;19;20002;-77
2022/10/31 08:14:24;;;;;;;17.75;6.82;;;;;;;;;;7388415;19;19995;-76
2022/10/31 08:16:50;;;;;;;14.48;6.80;;;;;;;;;;7394563;19;19994;-78
2022/10/31 08:19:15;;;;;;;15.13;6.85;;;;;;;;;;7395346;19;20002;-75
2022/10/31 08:21:40;;;;;;;15.15;7.03;;;;;;;;;;7388296;19;20010;-74
2022/10/31 08:24:06;;;;;;;17.50;7.45;;;;;;;;;;7395009;19;19998;-75
2022/10/31 08:26:31;;;;;;;17.40;7.20;;;;;;;;;;7394938;19;20008;-75
2022/10/31 08:28:57;;;;;;;16.63;7.60;;;;;;;;;;7395801;19;20382;-73
2022/10/31 08:31:23;;;;;;;16.33;7.85;;;;;;;;;;7392926;19;20003;-75
2022/10/31 08:33:48;;;;;;;13.60;7.68;;;;;;;;;;7392660;19;20015;-75
2022/10/31 08:36:14;;;;;;;18.35;7.38;;;;;;;;;;7394783;19;19995;-75
2022/10/31 08:38:39;;;;;;;15.25;7.50;;;;;;;;;;7394932;19;20001;-76
2022/10/31 08:41:05;;;;;;;14.48;7.65;;;;;;;;;;7393438;19;20005;-77
2022/10/31 08:43:30;;;;;;;16.25;8.07;;;;;;;;;;7391950;19;19998;-78
2022/10/31 08:45:55;;;;;;;17.80;8.93;;;;;;;;;;7392576;19;20006;-77
2022/10/31 08:48:21;;;;;;;24.67;9.85;;;;;;;;;;7394580;19;20003;-76
2022/10/31 08:50:47;;;;;;;20.67;9.25;;;;;;;;;;7392849;19;20314;-78
2022/10/31 08:53:15;;;;;;;16.55;8.57;;;;;;;;;;7392318;19;20457;-80
2022/10/31 08:55:41;;;;;;;16.85;9.40;;;;;;;;;;7392660;19;20346;-79
2022/10/31 08:58:11;;;;;;;17.83;9.80;;;;;;;;;;7394633;19;20006;-77
2022/10/31 09:00:36;;;;;;;23.75;9.98;;;;;;;;;;7390309;19;20003;-76
2022/10/31 09:03:05;;;;;;;18.40;9.77;;;;;;;;;;7389284;19;20009;-76
2022/10/31 09:05:31;;;;;;;16.40;9.38;;;;;;;;;;7394083;19;19998;-73
2022/10/31 09:07:57;;;;;;;17.33;9.23;;;;;;;;;;7393242;19;20002;-74
2022/10/31 09:10:24;;;;;;;15.90;8.85;;;;;;;;;;7392755;19;20007;-72
2022/10/31 09:13:01;;;;;;;14.50;8.75;;;;;;;;;;7391858;19;20016;-80
2022/10/31 09:15:27;;;;;;;16.92;8.65;;;;;;;;;;7393151;19;20005;-78
2022/10/31 09:17:53;;;;;;;19.27;8.60;;;;;;;;;;7390113;19;20070;-77
2022/10/31 09:20:20;;;;;;;15.63;7.40;;;;;;;;;;7394624;19;20010;-76
2022/10/31 09:22:45;;;;;;;14.07;7.18;;;;;;;;;;7389280;19;20074;-77
2022/10/31 09:25:11;;;;;;;13.10;7.53;;;;;;;;;;7393445;19;20006;-77
2022/10/31 09:27:36;;;;;;;15.70;7.95;;;;;;;;;;7390821;19;20074;-75
2022/10/31 09:30:02;;;;;;;16.55;6.97;;;;;;;;;;7392637;19;20003;-76
2022/10/31 09:32:28;;;;;;;16.08;6.90;;;;;;;;;;7390190;19;20003;-81
2022/10/31 09:34:53;;;;;;;17.08;6.95;;;;;;;;;;7391125;19;20030;-77
2022/10/31 09:37:19;;;;;;;11.35;6.82;;;;;;;;;;7390578;19;20009;-85
2022/10/31 09:39:44;;;;;;;11.98;6.72;;;;;;;;;;7392602;19;19995;-78
2022/10/31 09:42:41;;;;;;;15.07;6.95;;;;;;;;;;7391321;19;20024;-80
2022/10/31 09:45:14;;;;;;;14.13;6.75;;;;;;;;;;7394813;19;20002;-86
2022/10/31 09:47:53;;;;;;;13.75;7.63;;;;;;;;;;7392374;19;20532;-84
2022/10/31 09:50:21;;;;;;;14.25;6.20;;;;;;;;;;7393008;19;20497;-78
2022/10/31 09:53:19;;;;;;;11.85;6.85;;;;;;;;;;7389205;19;20027;-82
2022/10/31 09:55:47;;;;;;;11.88;5.93;;;;;;;;;;7388888;19;20006;-79
2022/10/31 09:58:28;;;;;;;14.77;6.53;;;;;;;;;;7389496;19;20003;-82
2022/10/31 10:00:56;;;;;;;10.43;6.07;;;;;;;;;;7390115;19;20002;-78
2022/10/31 10:03:41;;;;;;;12.32;6.15;;;;;;;;;;7387942;19;20463;-84
2022/10/31 10:06:06;;;;;;;11.43;6.35;;;;;;;;;;7391486;19;20563;-75
2022/10/31 10:08:33;;;;;;;14.20;6.15;;;;;;;;;;7392383;19;20020;-76
2022/10/31 10:11:21;;;;;;;16.38;6.97;;;;;;;;;;7389390;19;20005;-76
2022/10/31 10:13:59;;;;;;;14.70;6.88;;;;;;;;;;7387065;19;20333;-75
2022/10/31 10:16:44;;;;;;;11.32;6.57;;;;;;;;;;7391853;19;20002;-74
2022/10/31 10:19:50;;;;;;;10.45;6.45;;;;;;;;;;7391773;19;20006;-74
2022/10/31 10:22:46;;;;;;;13.20;6.05;;;;;;;;;;7390405;19;20353;-73
2022/10/31 10:25:15;;;;;;;14.55;6.45;;;;;;;;;;7385290;19;20002;-73
2022/10/31 10:27:56;;;;;;;11.48;6.18;;;;;;;;;;7383693;19;20031;-74
2022/10/31 10:30:38;;;;;;;13.93;6.60;;;;;;;;;;7388405;19;20031;-75
2022/10/31 10:33:19;;;;;;;14.90;6.88;;;;;;;;;;7383728;19;20003;-74
2022/10/31 10:35:50;;;;;;;11.32;6.20;;;;;;;;;;7388446;19;20107;-75
2022/10/31 10:38:29;;;;;;;15.38;6.38;;;;;;;;;;7392096;19;19999;-73
2022/10/31 10:40:55;;;;;;;13.30;6.28;;;;;;;;;;7392395;19;20106;-73
2022/10/31 10:49:24;;;;;;;15.88;6.68;;;;;;;;;;7386885;19;20264;-73
2022/10/31 10:51:55;;;;;;;11.38;6.63;;;;;;;;;;7382421;19;20310;-74
2022/10/31 10:54:26;;;;;;;10.18;6.82;;;;;;;;;;7381055;19;20036;-74
2022/10/31 10:57:41;;;;;;;16.80;7.00;;;;;;;;;;7385695;19;20003;-73
2022/10/31 11:00:38;;;;;;;17.08;6.22;;;;;;;;;;7383339;19;20002;-74
2022/10/31 11:03:04;;;;;;;16.52;7.18;;;;;;;;;;7384318;19;19999;-74
2022/10/31 11:05:47;;;;;;;12.90;6.80;;;;;;;;;;7386744;19;20002;-74
2022/10/31 11:08:26;;;;;;;14.63;7.03;;;;;;;;;;7386676;19;20002;-73
2022/10/31 11:11:16;;;;;;;14.95;6.53;;;;;;;;;;7385462;19;20007;-72
2022/10/31 11:13:43;;;;;;;21.13;7.82;;;;;;;;;;7383333;19;20006;-73
2022/10/31 11:16:13;;;;;;;16.63;7.60;;;;;;;;;;7388214;19;20003;-72
2022/10/31 11:18:44;;;;;;;15.77;7.95;;;;;;;;;;7388078;19;20080;-73
2022/10/31 11:21:26;;;;;;;15.00;7.53;;;;;;;;;;7386447;19;19999;-73
2022/10/31 11:24:10;;;;;;;16.70;7.85;;;;;;;;;;7385384;19;20006;-73
2022/10/31 11:26:40;;;;;;;13.23;7.40;;;;;;;;;;7385503;19;20023;-74
2022/10/31 11:29:14;;;;;;;18.23;8.27;;;;;;;;;;7382843;19;19995;-73
2022/10/31 11:31:40;;;;;;;17.30;7.78;;;;;;;;;;7380845;19;20232;-73
2022/10/31 11:34:35;;;;;;;14.45;7.40;;;;;;;;;;7380020;19;20084;-72
2022/10/31 11:37:28;;;;;;;14.77;7.03;;;;;;;;;;7381402;19;20070;-73
2022/10/31 11:39:55;;;;;;;17.42;7.57;;;;;;;;;;7383854;19;20435;-74
2022/10/31 11:42:27;;;;;;;18.35;7.63;;;;;;;;;;7387867;19;20003;-74
2022/10/31 11:44:54;;;;;;;13.75;6.95;;;;;;;;;;7390916;19;19999;-74
2022/10/31 11:47:32;;;;;;;19.67;8.02;;;;;;;;;;7391925;19;20037;-73
2022/10/31 11:50:09;;;;;;;16.50;7.32;;;;;;;;;;7390489;19;20081;-72
2022/10/31 11:52:37;;;;;;;13.45;7.88;;;;;;;;;;7389264;19;20003;-73
2022/10/31 11:55:12;;;;;;;17.50;7.88;;;;;;;;;;7392841;19;20003;-73
2022/10/31 11:57:47;;;;;;;17.63;8.10;;;;;;;;;;7393147;19;20009;-73
2022/10/31 12:00:26;;;;;;;13.02;7.47;;;;;;;;;;7392936;19;19995;-73
2022/10/31 12:03:10;;;;;;;15.07;7.70;;;;;;;;;;7389289;19;20006;-73
2022/10/31 12:05:38;;;;;;;18.80;7.55;;;;;;;;;;7396315;19;20074;-73
2022/10/31 12:08:03;;;;;;;14.52;7.43;;;;;;;;;;7393695;19;20026;-73
2022/10/31 12:10:41;;;;;;;18.15;8.00;;;;;;;;;;7389854;19;20014;-73
2022/10/31 12:13:31;;;;;;;13.65;7.50;;;;;;;;;;7388085;19;20014;-73
2022/10/31 12:16:17;;;;;;;17.67;7.68;;;;;;;;;;7396943;19;20337;-73
2022/10/31 12:18:58;;;;;;;16.20;6.97;;;;;;;;;;7393035;19;20009;-71
2022/10/31 12:21:44;;;;;;;16.50;6.75;;;;;;;;;;7393734;19;20015;-72
2022/10/31 12:24:48;;;;;;;15.85;6.85;;;;;;;;;;7391451;19;20464;-72
2022/10/31 12:27:47;;;;;;;12.70;6.72;;;;;;;;;;7390661;19;20131;-74
2022/10/31 12:30:20;;;;;;;14.10;7.20;;;;;;;;;;7392119;19;19999;-74
2022/10/31 12:32:57;;;;;;;14.38;6.47;;;;;;;;;;7389697;19;20476;-74
2022/10/31 12:35:45;;;;;;;13.98;6.93;;;;;;;;;;7393212;19;20041;-74
2022/10/31 12:38:34;;;;;;;16.35;7.00;;;;;;;;;;7392261;19;20384;-74
2022/10/31 12:41:20;;;;;;;19.98;7.28;;;;;;;;;;7390841;19;20002;-72
2022/10/31 12:44:17;;;;;;;16.10;6.85;;;;;;;;;;7393018;19;20318;-74
2022/10/31 12:46:55;;;;;;;15.73;6.28;;;;;;;;;;7390229;19;20014;-73
2022/10/31 12:49:49;;;;;;;16.00;7.20;;;;;;;;;;7391709;19;20007;-73
2022/10/31 12:52:38;;;;;;;15.60;6.68;;;;;;;;;;7391351;19;20054;-74
2022/10/31 12:55:37;;;;;;;16.20;7.78;;;;;;;;;;7391036;19;20009;-74
2022/10/31 12:58:13;;;;;;;17.17;7.15;;;;;;;;;;7390934;19;20026;-73
2022/10/31 13:00:43;;;;;;;17.92;7.30;;;;;;;;;;7388767;19;20011;-74
2022/10/31 13:03:24;;;;;;;14.10;6.35;;;;;;;;;;7389240;19;20010;-74
2022/10/31 13:06:07;;;;;;;14.27;6.82;;;;;;;;;;7390046;19;19998;-75
2022/10/31 13:08:47;;;;;;;13.52;6.32;;;;;;;;;;7393432;19;19995;-74
2022/10/31 13:11:18;;;;;;;11.77;6.40;;;;;;;;;;7390030;19;19995;-74
2022/10/31 13:13:58;;;;;;;21.38;6.45;;;;;;;;;;7389696;19;19990;-72
2022/10/31 13:16:27;;;;;;;14.17;7.27;;;;;;;;;;7390161;19;20507;-74
2022/10/31 13:19:01;;;;;;;15.40;7.07;;;;;;;;;;7394264;19;20057;-74
2022/10/31 13:21:33;;;;;;;19.35;7.05;;;;;;;;;;7387823;19;20002;-74
2022/10/31 13:24:02;;;;;;;17.17;6.97;;;;;;;;;;7392391;19;20035;-73
2022/10/31 13:26:43;;;;;;;16.77;6.57;;;;;;;;;;7388613;19;19994;-74
2022/10/31 13:29:13;;;;;;;15.88;6.70;;;;;;;;;;7386956;19;20013;-75
2022/10/31 13:31:42;;;;;;;14.23;6.50;;;;;;;;;;7388544;19;20002;-74
2022/10/31 13:34:38;;;;;;;11.07;6.40;;;;;;;;;;7385974;19;20017;-73
2022/10/31 13:37:21;;;;;;;12.73;7.45;;;;;;;;;;7390373;19;20055;-75
2022/10/31 13:40:11;;;;;;;14.20;7.18;;;;;;;;;;7387428;19;20460;-74
2022/10/31 13:42:55;;;;;;;16.93;6.83;;;;;;;;;;7392291;19;20002;-74
2022/10/31 13:45:24;;;;;;;13.38;6.32;;;;;;;;;;7389332;19;20066;-75
2022/10/31 13:48:15;;;;;;;15.68;6.80;;;;;;;;;;7389665;19;19995;-75
2022/10/31 13:50:42;;;;;;;19.58;6.95;;;;;;;;;;7387309;19;19994;-75
2022/10/31 13:53:22;;;;;;;14.70;7.10;;;;;;;;;;7386616;19;20433;-74
2022/10/31 13:56:04;;;;;;;15.65;7.22;;;;;;;;;;7388501;19;20066;-74
2022/10/31 13:58:31;;;;;;;15.02;7.35;;;;;;;;;;7388794;19;19995;-75
2022/10/31 14:01:10;;;;;;;19.67;7.20;;;;;;;;;;7389879;19;20019;-72
2022/10/31 14:03:38;;;;;;;15.43;6.85;;;;;;;;;;7385473;19;20014;-78
2022/10/31 14:06:05;;;;;;;27.48;8.95;;;;;;;;;;7387087;19;20016;-79
2022/10/31 14:08:34;;;;;;;16.08;7.65;;;;;;;;;;7391349;19;20002;-78
2022/10/31 14:10:59;;;;;;;26.98;8.70;;;;;;;;;;7389158;19;20062;-80
2022/10/31 14:13:27;;;;;;;25.90;9.85;;;;;;;;;;7386644;19;20018;-79
2022/10/31 14:15:59;;;;;;;14.90;7.35;;;;;;;;;;7387279;19;20434;-79
2022/10/31 14:18:48;;;;;;;18.48;7.15;;;;;;;;;;7389613;19;20468;-78
2022/10/31 14:21:22;;;;;;;14.45;6.28;;;;;;;;;;7389058;19;19999;-78
2022/10/31 14:23:48;;;;;;;15.55;6.50;;;;;;;;;;7387325;19;20023;-78
2022/10/31 14:26:22;;;;;;;16.73;6.45;;;;;;;;;;7389172;19;19995;-79
2022/10/31 14:28:50;;;;;;;20.33;6.72;;;;;;;;;;7391914;19;20006;-79
2022/10/31 14:31:36;;;;;;;13.38;6.22;;;;;;;;;;7390521;19;20009;-78
2022/10/31 14:34:05;;;;;;;12.43;6.43;;;;;;;;;;7387421;19;20007;-79
2022/10/31 14:37:12;;;;;;;18.42;7.22;;;;;;;;;;7388970;19;20375;-81
2022/10/31 14:40:02;;;;;;;12.70;6.32;;;;;;;;;;7384427;19;20007;-78
2022/10/31 14:42:55;;;;;;;12.00;6.45;;;;;;;;;;7382932;19;20006;-78
2022/10/31 14:45:27;;;;;;;17.88;6.90;;;;;;;;;;7383869;19;19998;-77
2022/10/31 14:48:23;;;;;;;16.02;6.57;;;;;;;;;;7383196;19;20098;-78
2022/10/31 14:50:51;;;;;;;19.77;7.13;;;;;;;;;;7381767;19;20453;-78
2022/10/31 14:53:25;;;;;;;19.92;7.38;;;;;;;;;;7381244;19;20022;-78
2022/10/31 14:55:53;;;;;;;18.48;7.28;;;;;;;;;;7387067;19;20019;-79
2022/10/31 14:58:46;;;;;;;15.93;6.90;;;;;;;;;;7390056;19;20015;-78
2022/10/31 15:01:28;;;;;;;13.00;6.38;;;;;;;;;;7363478;19;20011;-78